sensor_id;sensor_type;location;lat;lon;timestamp;pressure;altitude;pressure_sealevel;temperature;humidity
46045;BME280;31781;54.094;13.428;2023-04-03T00:01:16;103365.91;;;3.79;57.92
46045;BME280;31781;54.094;13.428;2023-04-03T00:03:19;103362.25;;;3.80;56.87
46045;BME280;31781;54.094;13.428;2023-04-03T00:05:23;103371.09;;;3.82;57.12
46045;BME280;31781;54.094;13.428;2023-04-03T00:07:25;103368.31;;;3.83;57.36
46045;BME280;31781;54.094;13.428;2023-04-03T00:09:26;103366.34;;;3.85;57.77
46045;BME280;31781;54.094;13.428;2023-04-03T00:11:28;103373.47;;;3.86;56.97
46045;BME280;31781;54.094;13.428;2023-04-03T00:13:31;103366.28;;;3.87;56.86
46045;BME280;31781;54.094;13.428;2023-04-03T00:15:33;103372.53;;;3.87;56.82
46045;BME280;31781;54.094;13.428;2023-04-03T00:20:41;103375.97;;;3.89;56.60
46045;BME280;31781;54.094;13.428;2023-04-03T00:22:42;103378.66;;;3.89;56.28
46045;BME280;31781;54.094;13.428;2023-04-03T00:24:44;103367.88;;;3.89;56.36
46045;BME280;31781;54.094;13.428;2023-04-03T00:26:45;103378.66;;;3.89;55.48
46045;BME280;31781;54.094;13.428;2023-04-03T00:28:47;103376.84;;;3.90;56.01
46045;BME280;31781;54.094;13.428;2023-04-03T00:30:50;103383.09;;;3.90;56.41
46045;BME280;31781;54.094;13.428;2023-04-03T00:32:52;103375.88;;;3.91;56.73
46045;BME280;31781;54.094;13.428;2023-04-03T00:34:54;103377.69;;;3.90;56.41
46045;BME280;31781;54.094;13.428;2023-04-03T00:36:58;103373.94;;;3.93;56.68
46045;BME280;31781;54.094;13.428;2023-04-03T00:39:00;103380.19;;;3.93;57.24
46045;BME280;31781;54.094;13.428;2023-04-03T00:41:02;103378.44;;;3.92;56.75
46045;BME280;31781;54.094;13.428;2023-04-03T00:43:11;103384.63;;;3.95;56.41
46045;BME280;31781;54.094;13.428;2023-04-03T00:45:32;103386.44;;;3.94;55.79
46045;BME280;31781;54.094;13.428;2023-04-03T00:47:35;103383.75;;;3.94;55.78
46045;BME280;31781;54.094;13.428;2023-04-03T00:49:37;103382.88;;;3.93;55.94
46045;BME280;31781;54.094;13.428;2023-04-03T00:51:40;103385.56;;;3.93;56.56
46045;BME280;31781;54.094;13.428;2023-04-03T00:53:46;103381.91;;;3.95;56.99
46045;BME280;31781;54.094;13.428;2023-04-03T00:55:51;103384.63;;;3.95;56.93
46045;BME280;31781;54.094;13.428;2023-04-03T00:57:55;103383.75;;;3.94;56.60
46045;BME280;31781;54.094;13.428;2023-04-03T01:00:02;103378.34;;;3.94;56.64
46045;BME280;31781;54.094;13.428;2023-04-03T01:02:04;103383.63;;;3.96;56.73
46045;BME280;31781;54.094;13.428;2023-04-03T01:04:27;103389.78;;;3.98;56.32
46045;BME280;31781;54.094;13.428;2023-04-03T01:06:32;103384.50;;;3.96;57.26
46045;BME280;31781;54.094;13.428;2023-04-03T01:08:35;103378.25;;;3.96;56.82
46045;BME280;31781;54.094;13.428;2023-04-03T01:10:38;103379.09;;;3.96;57.10
46045;BME280;31781;54.094;13.428;2023-04-03T01:12:43;103388.06;;;3.97;57.09
46045;BME280;31781;54.094;13.428;2023-04-03T01:14:49;103386.22;;;3.97;55.69
46045;BME280;31781;54.094;13.428;2023-04-03T01:16:52;103389.88;;;3.96;55.51
46045;BME280;31781;54.094;13.428;2023-04-03T01:18:55;103383.53;;;3.97;55.71
46045;BME280;31781;54.094;13.428;2023-04-03T01:21:21;103382.59;;;3.98;55.80
46045;BME280;31781;54.094;13.428;2023-04-03T01:23:35;103388.06;;;3.97;55.73
46045;BME280;31781;54.094;13.428;2023-04-03T01:25:43;103397.00;;;3.97;55.57
46045;BME280;31781;54.094;13.428;2023-04-03T01:27:45;103388.91;;;3.97;55.52
46045;BME280;31781;54.094;13.428;2023-04-03T01:29:47;103387.19;;;3.96;56.10
46045;BME280;31781;54.094;13.428;2023-04-03T01:31:53;103395.19;;;3.98;57.07
46045;BME280;31781;54.094;13.428;2023-04-03T01:33:55;103386.22;;;3.97;57.32
46045;BME280;31781;54.094;13.428;2023-04-03T01:35:57;103387.09;;;3.98;57.34
46045;BME280;31781;54.094;13.428;2023-04-03T01:37:59;103394.97;;;4.01;57.41
46045;BME280;31781;54.094;13.428;2023-04-03T01:40:00;103395.84;;;4.01;57.16
46045;BME280;31781;54.094;13.428;2023-04-03T01:42:02;103401.13;;;4.03;57.13
46045;BME280;31781;54.094;13.428;2023-04-03T01:44:05;103399.41;;;4.02;57.26
46045;BME280;31781;54.094;13.428;2023-04-03T01:46:06;103403.72;;;4.04;57.05
46045;BME280;31781;54.094;13.428;2023-04-03T01:48:10;103399.19;;;4.05;57.07
46045;BME280;31781;54.094;13.428;2023-04-03T01:50:12;103403.63;;;4.06;56.69
46045;BME280;31781;54.094;13.428;2023-04-03T01:52:14;103406.31;;;4.06;56.52
46045;BME280;31781;54.094;13.428;2023-04-03T01:54:16;103404.38;;;4.08;56.79
46045;BME280;31781;54.094;13.428;2023-04-03T01:56:18;103405.25;;;4.08;57.81
46045;BME280;31781;54.094;13.428;2023-04-03T01:58:20;103408.69;;;4.10;58.28
46045;BME280;31781;54.094;13.428;2023-04-03T02:00:22;103410.41;;;4.11;57.82
46045;BME280;31781;54.094;13.428;2023-04-03T02:02:24;103415.72;;;4.13;57.54
46045;BME280;31781;54.094;13.428;2023-04-03T02:04:27;103412.06;;;4.14;57.50
46045;BME280;31781;54.094;13.428;2023-04-03T02:06:29;103405.81;;;4.13;56.89
46045;BME280;31781;54.094;13.428;2023-04-03T02:08:31;103403.97;;;4.14;57.13
46045;BME280;31781;54.094;13.428;2023-04-03T02:10:33;103395.03;;;4.13;56.32
46045;BME280;31781;54.094;13.428;2023-04-03T02:12:35;103405.03;;;4.11;56.38
46045;BME280;31781;54.094;13.428;2023-04-03T02:14:36;103409.47;;;4.12;56.35
46045;BME280;31781;54.094;13.428;2023-04-03T02:16:38;103413.22;;;4.10;55.58
46045;BME280;31781;54.094;13.428;2023-04-03T02:18:40;103418.50;;;4.11;56.16
46045;BME280;31781;54.094;13.428;2023-04-03T02:20:43;103421.31;;;4.10;56.19
46045;BME280;31781;54.094;13.428;2023-04-03T02:22:45;103417.84;;;4.08;56.13
46045;BME280;31781;54.094;13.428;2023-04-03T02:24:46;103413.53;;;4.05;55.38
46045;BME280;31781;54.094;13.428;2023-04-03T02:26:48;103419.78;;;4.06;56.06
46045;BME280;31781;54.094;13.428;2023-04-03T02:28:50;103422.56;;;4.04;55.90
46045;BME280;31781;54.094;13.428;2023-04-03T02:30:51;103419.00;;;4.04;55.13
46045;BME280;31781;54.094;13.428;2023-04-03T02:32:53;103412.88;;;4.02;55.02
46045;BME280;31781;54.094;13.428;2023-04-03T02:34:55;103416.44;;;4.02;55.07
46045;BME280;31781;54.094;13.428;2023-04-03T02:36:58;103423.72;;;4.00;55.41
46045;BME280;31781;54.094;13.428;2023-04-03T02:38:59;103421.03;;;4.00;55.52
46045;BME280;31781;54.094;13.428;2023-04-03T02:41:02;103420.28;;;3.98;55.33
46045;BME280;31781;54.094;13.428;2023-04-03T02:43:04;103431.94;;;3.99;56.06
46045;BME280;31781;54.094;13.428;2023-04-03T02:45:06;103431.16;;;3.97;55.36
46045;BME280;31781;54.094;13.428;2023-04-03T02:47:08;103431.28;;;3.95;55.09
46045;BME280;31781;54.094;13.428;2023-04-03T02:49:10;103431.34;;;3.93;56.30
46045;BME280;31781;54.094;13.428;2023-04-03T02:51:12;103423.28;;;3.93;55.88
46045;BME280;31781;54.094;13.428;2023-04-03T02:53:15;103428.75;;;3.92;56.14
46045;BME280;31781;54.094;13.428;2023-04-03T02:55:17;103430.59;;;3.91;55.86
46045;BME280;31781;54.094;13.428;2023-04-03T02:57:19;103433.41;;;3.90;55.45
46045;BME280;31781;54.094;13.428;2023-04-03T02:59:21;103434.34;;;3.89;55.61
46045;BME280;31781;54.094;13.428;2023-04-03T03:01:23;103439.84;;;3.87;56.38
46045;BME280;31781;54.094;13.428;2023-04-03T03:03:25;103425.53;;;3.87;56.01
46045;BME280;31781;54.094;13.428;2023-04-03T03:05:27;103426.56;;;3.84;56.09
46045;BME280;31781;54.094;13.428;2023-04-03T03:07:29;103427.53;;;3.83;55.55
46045;BME280;31781;54.094;13.428;2023-04-03T03:09:32;103429.38;;;3.83;55.24
46045;BME280;31781;54.094;13.428;2023-04-03T03:11:34;103430.31;;;3.82;56.05
46045;BME280;31781;54.094;13.428;2023-04-03T03:13:36;103427.75;;;3.80;55.29
46045;BME280;31781;54.094;13.428;2023-04-03T03:15:37;103435.91;;;3.79;55.02
46045;BME280;31781;54.094;13.428;2023-04-03T03:17:39;103432.34;;;3.78;55.92
46045;BME280;31781;54.094;13.428;2023-04-03T03:19:41;103434.31;;;3.76;55.95
46045;BME280;31781;54.094;13.428;2023-04-03T03:21:42;103435.25;;;3.75;55.65
46045;BME280;31781;54.094;13.428;2023-04-03T03:23:44;103441.59;;;3.74;56.00
46045;BME280;31781;54.094;13.428;2023-04-03T03:25:47;103434.47;;;3.73;56.43
46045;BME280;31781;54.094;13.428;2023-04-03T03:27:49;103431.78;;;3.73;55.37
46045;BME280;31781;54.094;13.428;2023-04-03T03:29:51;103427.38;;;3.72;55.76
46045;BME280;31781;54.094;13.428;2023-04-03T03:31:52;103431.03;;;3.71;56.05
46045;BME280;31781;54.094;13.428;2023-04-03T03:33:54;103430.94;;;3.73;56.44
46045;BME280;31781;54.094;13.428;2023-04-03T03:35:56;103431.03;;;3.71;56.10
46045;BME280;31781;54.094;13.428;2023-04-03T03:37:58;103431.13;;;3.70;55.98
46045;BME280;31781;54.094;13.428;2023-04-03T03:40:00;103435.66;;;3.69;55.98
46045;BME280;31781;54.094;13.428;2023-04-03T03:42:03;103437.47;;;3.69;55.21
46045;BME280;31781;54.094;13.428;2023-04-03T03:44:04;103435.75;;;3.68;55.23
46045;BME280;31781;54.094;13.428;2023-04-03T03:46:06;103440.25;;;3.67;54.79
46045;BME280;31781;54.094;13.428;2023-04-03T03:48:07;103440.25;;;3.67;54.85
46045;BME280;31781;54.094;13.428;2023-04-03T03:50:10;103440.25;;;3.67;54.79
46045;BME280;31781;54.094;13.428;2023-04-03T03:52:12;103440.25;;;3.67;54.84
46045;BME280;31781;54.094;13.428;2023-04-03T03:54:13;103444.78;;;3.67;54.36
46045;BME280;31781;54.094;13.428;2023-04-03T03:56:15;103436.69;;;3.67;54.90
46045;BME280;31781;54.094;13.428;2023-04-03T03:58:18;103438.66;;;3.65;54.65
46045;BME280;31781;54.094;13.428;2023-04-03T04:00:20;103443.25;;;3.63;55.00
46045;BME280;31781;54.094;13.428;2023-04-03T04:02:22;103439.59;;;3.64;55.14
46045;BME280;31781;54.094;13.428;2023-04-03T04:04:24;103442.38;;;3.62;54.53
46045;BME280;31781;54.094;13.428;2023-04-03T04:06:25;103455.00;;;3.62;54.33
46045;BME280;31781;54.094;13.428;2023-04-03T04:08:27;103442.69;;;3.58;53.70
46045;BME280;31781;54.094;13.428;2023-04-03T04:10:29;103446.25;;;3.58;53.67
46045;BME280;31781;54.094;13.428;2023-04-03T04:12:31;103451.72;;;3.57;53.87
46045;BME280;31781;54.094;13.428;2023-04-03T04:14:34;103449.13;;;3.55;54.98
46045;BME280;31781;54.094;13.428;2023-04-03T04:16:36;103449.22;;;3.54;55.34
46045;BME280;31781;54.094;13.428;2023-04-03T04:18:38;103450.19;;;3.53;55.08
46045;BME280;31781;54.094;13.428;2023-04-03T04:20:40;103451.25;;;3.50;55.44
46045;BME280;31781;54.094;13.428;2023-04-03T04:22:41;103456.63;;;3.50;55.29
46045;BME280;31781;54.094;13.428;2023-04-03T04:24:43;103456.84;;;3.47;54.92
46045;BME280;31781;54.094;13.428;2023-04-03T04:26:45;103453.34;;;3.45;55.76
46045;BME280;31781;54.094;13.428;2023-04-03T04:28:46;103456.06;;;3.45;56.09
46045;BME280;31781;54.094;13.428;2023-04-03T04:30:50;103458.00;;;3.43;55.90
46045;BME280;31781;54.094;13.428;2023-04-03T04:32:52;103455.31;;;3.43;56.31
46045;BME280;31781;54.094;13.428;2023-04-03T04:34:54;103460.69;;;3.43;56.07
46045;BME280;31781;54.094;13.428;2023-04-03T04:36:56;103452.69;;;3.41;55.91
46045;BME280;31781;54.094;13.428;2023-04-03T04:38:59;103459.03;;;3.40;56.20
46045;BME280;31781;54.094;13.428;2023-04-03T04:41:01;103464.31;;;3.42;55.85
46045;BME280;31781;54.094;13.428;2023-04-03T04:43:03;103471.53;;;3.41;55.72
46045;BME280;31781;54.094;13.428;2023-04-03T04:45:05;103475.09;;;3.42;56.05
46045;BME280;31781;54.094;13.428;2023-04-03T04:47:09;103476.84;;;3.43;56.15
46045;BME280;31781;54.094;13.428;2023-04-03T04:49:10;103477.69;;;3.43;56.34
46045;BME280;31781;54.094;13.428;2023-04-03T04:51:12;103472.31;;;3.43;55.69
46045;BME280;31781;54.094;13.428;2023-04-03T04:53:14;103477.69;;;3.43;56.11
46045;BME280;31781;54.094;13.428;2023-04-03T04:55:16;103473.16;;;3.44;55.72
46045;BME280;31781;54.094;13.428;2023-04-03T04:57:17;103479.41;;;3.44;55.33
46045;BME280;31781;54.094;13.428;2023-04-03T04:59:19;103482.22;;;3.43;56.03
46045;BME280;31781;54.094;13.428;2023-04-03T05:01:22;103483.09;;;3.43;55.33
46045;BME280;31781;54.094;13.428;2023-04-03T05:03:25;103487.59;;;3.43;55.47
46045;BME280;31781;54.094;13.428;2023-04-03T05:05:28;103480.47;;;3.42;55.20
46045;BME280;31781;54.094;13.428;2023-04-03T05:07:29;103483.16;;;3.42;55.80
46045;BME280;31781;54.094;13.428;2023-04-03T05:09:31;103485.84;;;3.42;55.90
46045;BME280;31781;54.094;13.428;2023-04-03T05:11:33;103486.72;;;3.42;54.98
46045;BME280;31781;54.094;13.428;2023-04-03T05:13:36;103486.81;;;3.41;55.05
46045;BME280;31781;54.094;13.428;2023-04-03T05:15:37;103488.53;;;3.42;54.44
46045;BME280;31781;54.094;13.428;2023-04-03T05:17:40;103492.19;;;3.41;54.99
46045;BME280;31781;54.094;13.428;2023-04-03T05:19:43;103489.63;;;3.39;54.49
46045;BME280;31781;54.094;13.428;2023-04-03T05:21:44;103495.84;;;3.40;54.55
46045;BME280;31781;54.094;13.428;2023-04-03T05:23:46;103487.75;;;3.40;54.64
46045;BME280;31781;54.094;13.428;2023-04-03T05:25:48;103496.81;;;3.39;55.46
46045;BME280;31781;54.094;13.428;2023-04-03T05:27:50;103489.69;;;3.38;54.95
46045;BME280;31781;54.094;13.428;2023-04-03T05:29:53;103494.22;;;3.37;55.26
46045;BME280;31781;54.094;13.428;2023-04-03T05:31:55;103501.22;;;3.40;54.77
46045;BME280;31781;54.094;13.428;2023-04-03T05:33:57;103494.13;;;3.39;55.46
46045;BME280;31781;54.094;13.428;2023-04-03T05:36:04;103494.88;;;3.41;55.37
46045;BME280;31781;54.094;13.428;2023-04-03T05:38:07;103501.81;;;3.45;55.48
46045;BME280;31781;54.094;13.428;2023-04-03T05:40:09;103494.59;;;3.46;54.84
46045;BME280;31781;54.094;13.428;2023-04-03T05:42:11;103500.75;;;3.48;54.77
46045;BME280;31781;54.094;13.428;2023-04-03T05:44:13;103506.91;;;3.50;54.97
46045;BME280;31781;54.094;13.428;2023-04-03T05:46:17;103504.22;;;3.50;53.85
46045;BME280;31781;54.094;13.428;2023-04-03T05:48:20;103505.97;;;3.51;54.23
46045;BME280;31781;54.094;13.428;2023-04-03T05:50:21;103504.97;;;3.52;54.23
46045;BME280;31781;54.094;13.428;2023-04-03T05:52:26;103511.91;;;3.56;53.48
46045;BME280;31781;54.094;13.428;2023-04-03T05:54:30;103508.06;;;3.60;53.56
46045;BME280;31781;54.094;13.428;2023-04-03T05:56:32;103509.69;;;3.62;53.61
46045;BME280;31781;54.094;13.428;2023-04-03T05:58:33;103520.28;;;3.65;53.72
46045;BME280;31781;54.094;13.428;2023-04-03T06:00:35;103518.94;;;3.72;53.67
46045;BME280;31781;54.094;13.428;2023-04-03T06:02:36;103514.97;;;3.78;54.41
46045;BME280;31781;54.094;13.428;2023-04-03T06:04:39;103508.34;;;3.83;53.48
46045;BME280;31781;54.094;13.428;2023-04-03T06:06:46;103520.34;;;3.92;53.08
46045;BME280;31781;54.094;13.428;2023-04-03T06:08:54;103517.56;;;3.93;52.72
46045;BME280;31781;54.094;13.428;2023-04-03T06:10:56;103513.41;;;4.02;51.58
46045;BME280;31781;54.094;13.428;2023-04-03T06:13:00;103525.53;;;4.09;52.41
46045;BME280;31781;54.094;13.428;2023-04-03T06:15:02;103517.03;;;4.15;52.15
46045;BME280;31781;54.094;13.428;2023-04-03T06:17:04;103521.47;;;4.16;51.65
46045;BME280;31781;54.094;13.428;2023-04-03T06:19:06;103521.91;;;4.23;51.38
46045;BME280;31781;54.094;13.428;2023-04-03T06:21:08;103516.91;;;4.31;51.26
46045;BME280;31781;54.094;13.428;2023-04-03T06:23:10;103524.97;;;4.31;51.36
46045;BME280;31781;54.094;13.428;2023-04-03T06:25:13;103520.25;;;4.34;51.00
46045;BME280;31781;54.094;13.428;2023-04-03T06:27:15;103519.84;;;4.40;50.65
46045;BME280;31781;54.094;13.428;2023-04-03T06:29:17;103519.53;;;4.45;51.04
46045;BME280;31781;54.094;13.428;2023-04-03T06:31:19;103519.31;;;4.48;51.30
46045;BME280;31781;54.094;13.428;2023-04-03T06:33:21;103522.28;;;4.58;51.17
46045;BME280;31781;54.094;13.428;2023-04-03T06:35:23;103520.78;;;4.66;50.83
46045;BME280;31781;54.094;13.428;2023-04-03T06:37:25;103529.88;;;4.65;50.08
46045;BME280;31781;54.094;13.428;2023-04-03T06:39:28;103528.50;;;4.72;50.38
46045;BME280;31781;54.094;13.428;2023-04-03T06:41:31;103535.50;;;4.75;50.32
46045;BME280;31781;54.094;13.428;2023-04-03T06:43:37;103536.47;;;4.74;50.37
46045;BME280;31781;54.094;13.428;2023-04-03T06:45:39;103540.97;;;4.73;49.45
46045;BME280;31781;54.094;13.428;2023-04-03T06:47:41;103543.00;;;4.84;50.75
46045;BME280;31781;54.094;13.428;2023-04-03T06:49:44;103542.66;;;4.88;50.18
46045;BME280;31781;54.094;13.428;2023-04-03T06:51:46;103544.47;;;4.88;49.68
46045;BME280;31781;54.094;13.428;2023-04-03T06:53:48;103549.47;;;4.94;50.11
46045;BME280;31781;54.094;13.428;2023-04-03T06:55:50;103552.84;;;4.98;48.99
46045;BME280;31781;54.094;13.428;2023-04-03T06:57:53;103555.63;;;4.96;49.35
46045;BME280;31781;54.094;13.428;2023-04-03T06:59:55;103549.50;;;5.07;48.30
46045;BME280;31781;54.094;13.428;2023-04-03T07:01:56;103558.38;;;5.09;49.00
46045;BME280;31781;54.094;13.428;2023-04-03T07:03:58;103562.88;;;5.08;49.24
46045;BME280;31781;54.094;13.428;2023-04-03T07:06:00;103561.06;;;5.09;49.16
46045;BME280;31781;54.094;13.428;2023-04-03T07:08:02;103552.97;;;5.09;49.23
46045;BME280;31781;54.094;13.428;2023-04-03T07:10:04;103561.59;;;5.14;48.39
46045;BME280;31781;54.094;13.428;2023-04-03T07:12:06;103559.13;;;5.23;47.86
46045;BME280;31781;54.094;13.428;2023-04-03T07:14:09;103554.09;;;5.31;48.20
46045;BME280;31781;54.094;13.428;2023-04-03T07:16:14;103557.66;;;5.32;47.88
46045;BME280;31781;54.094;13.428;2023-04-03T07:18:16;103560.56;;;5.42;48.16
46045;BME280;31781;54.094;13.428;2023-04-03T07:20:18;103561.75;;;5.50;48.79
46045;BME280;31781;54.094;13.428;2023-04-03T07:22:20;103566.41;;;5.61;48.35
46045;BME280;31781;54.094;13.428;2023-04-03T07:24:21;103558.41;;;5.72;48.03
46045;BME280;31781;54.094;13.428;2023-04-03T07:26:23;103557.00;;;5.79;48.33
46045;BME280;31781;54.094;13.428;2023-04-03T07:28:25;103559.19;;;5.86;48.00
46045;BME280;31781;54.094;13.428;2023-04-03T07:30:28;103560.88;;;6.00;47.84
46045;BME280;31781;54.094;13.428;2023-04-03T07:32:29;103563.78;;;6.10;47.30
46045;BME280;31781;54.094;13.428;2023-04-03T07:34:31;103557.81;;;6.17;47.53
46045;BME280;31781;54.094;13.428;2023-04-03T07:36:33;103567.88;;;6.28;47.34
46045;BME280;31781;54.094;13.428;2023-04-03T07:38:35;103572.25;;;6.42;47.18
46045;BME280;31781;54.094;13.428;2023-04-03T07:40:38;103559.91;;;6.50;47.15
46045;BME280;31781;54.094;13.428;2023-04-03T07:42:40;103573.13;;;6.66;47.35
46045;BME280;31781;54.094;13.428;2023-04-03T07:44:42;103567.66;;;6.78;47.12
46045;BME280;31781;54.094;13.428;2023-04-03T07:46:45;103567.56;;;6.91;46.12
46045;BME280;31781;54.094;13.428;2023-04-03T07:48:47;103569.56;;;6.89;45.82
46045;BME280;31781;54.094;13.428;2023-04-03T07:50:48;103570.28;;;6.91;45.92
46045;BME280;31781;54.094;13.428;2023-04-03T07:52:50;103577.44;;;6.92;45.55
46045;BME280;31781;54.094;13.428;2023-04-03T07:54:51;103576.81;;;6.89;46.02
46045;BME280;31781;54.094;13.428;2023-04-03T07:56:53;103576.13;;;6.98;45.39
46045;BME280;31781;54.094;13.428;2023-04-03T07:58:55;103577.25;;;7.06;45.61
46045;BME280;31781;54.094;13.428;2023-04-03T08:00:56;103565.81;;;7.14;46.35
46045;BME280;31781;54.094;13.428;2023-04-03T08:02:59;103573.88;;;7.26;45.31
46045;BME280;31781;54.094;13.428;2023-04-03T08:05:01;103573.16;;;7.35;44.52
46045;BME280;31781;54.094;13.428;2023-04-03T08:07:04;103570.34;;;7.37;44.67
46045;BME280;31781;54.094;13.428;2023-04-03T08:09:05;103567.66;;;7.48;45.30
46045;BME280;31781;54.094;13.428;2023-04-03T08:11:07;103571.00;;;7.63;44.97
46045;BME280;31781;54.094;13.428;2023-04-03T08:13:09;103573.63;;;7.75;45.01
46045;BME280;31781;54.094;13.428;2023-04-03T08:15:11;103571.13;;;7.83;45.31
46045;BME280;31781;54.094;13.428;2023-04-03T08:17:13;103570.91;;;7.87;45.51
46045;BME280;31781;54.094;13.428;2023-04-03T08:19:16;103567.94;;;7.90;45.00
46045;BME280;31781;54.094;13.428;2023-04-03T08:21:27;103572.25;;;8.03;45.41
46045;BME280;31781;54.094;13.428;2023-04-03T08:23:29;103570.66;;;8.12;44.96
46045;BME280;31781;54.094;13.428;2023-04-03T08:25:31;103574.34;;;8.22;44.75
46045;BME280;31781;54.094;13.428;2023-04-03T08:27:33;103570.78;;;8.32;43.98
46045;BME280;31781;54.094;13.428;2023-04-03T08:29:34;103566.31;;;8.43;44.19
46045;BME280;31781;54.094;13.428;2023-04-03T08:31:36;103567.41;;;8.51;43.86
46045;BME280;31781;54.094;13.428;2023-04-03T08:33:38;103567.41;;;8.51;43.31
46045;BME280;31781;54.094;13.428;2023-04-03T08:35:42;103570.88;;;8.53;42.72
46045;BME280;31781;54.094;13.428;2023-04-03T08:37:44;103575.03;;;8.57;42.67
46045;BME280;31781;54.094;13.428;2023-04-03T08:39:46;103569.47;;;8.70;43.34
46045;BME280;31781;54.094;13.428;2023-04-03T08:41:48;103576.84;;;8.79;42.52
46045;BME280;31781;54.094;13.428;2023-04-03T08:43:56;103573.69;;;8.95;44.23
46045;BME280;31781;54.094;13.428;2023-04-03T08:46:01;103572.66;;;9.07;42.97
46045;BME280;31781;54.094;13.428;2023-04-03T08:48:05;103563.31;;;9.20;42.17
46045;BME280;31781;54.094;13.428;2023-04-03T08:50:12;103564.72;;;9.36;43.42
46045;BME280;31781;54.094;13.428;2023-04-03T08:52:19;103561.53;;;9.51;43.18
46045;BME280;31781;54.094;13.428;2023-04-03T08:54:28;103570.19;;;9.66;43.38
46045;BME280;31781;54.094;13.428;2023-04-03T08:56:35;103574.09;;;9.73;40.98
46045;BME280;31781;54.094;13.428;2023-04-03T08:58:42;103569.41;;;9.75;41.96
46045;BME280;31781;54.094;13.428;2023-04-03T09:00:49;103567.03;;;9.91;41.05
46045;BME280;31781;54.094;13.428;2023-04-03T09:02:53;103573.13;;;10.04;42.00
46045;BME280;31781;54.094;13.428;2023-04-03T09:04:56;103572.78;;;10.18;40.72
46045;BME280;31781;54.094;13.428;2023-04-03T09:07:02;103575.34;;;10.20;42.14
46045;BME280;31781;54.094;13.428;2023-04-03T09:09:14;103567.94;;;10.32;41.98
46045;BME280;31781;54.094;13.428;2023-04-03T09:11:21;103574.25;;;10.32;41.40
46045;BME280;31781;54.094;13.428;2023-04-03T09:13:31;103574.00;;;10.45;42.21
46045;BME280;31781;54.094;13.428;2023-04-03T09:15:34;103568.28;;;10.48;41.00
46045;BME280;31781;54.094;13.428;2023-04-03T09:17:42;103569.31;;;10.56;41.74
46045;BME280;31781;54.094;13.428;2023-04-03T09:19:54;103578.47;;;10.65;41.30
46045;BME280;31781;54.094;13.428;2023-04-03T09:21:59;103576.63;;;10.65;39.88
46045;BME280;31781;54.094;13.428;2023-04-03T09:24:06;103574.47;;;10.69;39.51
46045;BME280;31781;54.094;13.428;2023-04-03T09:26:14;103589.06;;;10.68;40.75
46045;BME280;31781;54.094;13.428;2023-04-03T09:28:18;103580.22;;;10.75;39.98
46045;BME280;31781;54.094;13.428;2023-04-03T09:30:21;103579.66;;;10.82;39.93
46045;BME280;31781;54.094;13.428;2023-04-03T09:32:27;103588.41;;;10.85;40.00
46045;BME280;31781;54.094;13.428;2023-04-03T09:34:31;103577.50;;;10.95;40.19
46045;BME280;31781;54.094;13.428;2023-04-03T09:36:38;103576.66;;;11.04;40.45
46045;BME280;31781;54.094;13.428;2023-04-03T09:38:40;103582.84;;;11.15;40.16
46045;BME280;31781;54.094;13.428;2023-04-03T09:40:42;103578.09;;;11.08;38.71
46045;BME280;31781;54.094;13.428;2023-04-03T09:42:46;103577.94;;;11.19;39.39
46045;BME280;31781;54.094;13.428;2023-04-03T09:44:58;103582.13;;;11.23;38.68
46045;BME280;31781;54.094;13.428;2023-04-03T09:47:17;103580.38;;;11.32;41.91
46045;BME280;31781;54.094;13.428;2023-04-03T09:49:20;103578.94;;;11.28;38.65
46045;BME280;31781;54.094;13.428;2023-04-03T09:51:25;103579.38;;;11.33;38.55
46045;BME280;31781;54.094;13.428;2023-04-03T09:53:37;103579.22;;;11.44;41.27
46045;BME280;31781;54.094;13.428;2023-04-03T09:55:43;103568.56;;;11.50;39.85
46045;BME280;31781;54.094;13.428;2023-04-03T09:57:46;103566.97;;;11.57;38.33
46045;BME280;31781;54.094;13.428;2023-04-03T09:59:57;103575.44;;;11.64;39.81
46045;BME280;31781;54.094;13.428;2023-04-03T10:02:02;103569.25;;;11.71;38.37
46045;BME280;31781;54.094;13.428;2023-04-03T10:04:07;103568.94;;;11.84;39.01
46045;BME280;31781;54.094;13.428;2023-04-03T10:06:21;103568.47;;;11.98;40.58
46045;BME280;31781;54.094;13.428;2023-04-03T10:08:29;103569.44;;;12.07;37.62
46045;BME280;31781;54.094;13.428;2023-04-03T10:10:31;103568.53;;;12.16;37.66
46045;BME280;31781;54.094;13.428;2023-04-03T10:12:33;103565.19;;;12.22;37.68
46045;BME280;31781;54.094;13.428;2023-04-03T10:14:38;103560.69;;;12.31;37.99
46045;BME280;31781;54.094;13.428;2023-04-03T10:16:43;103551.03;;;12.36;36.22
46045;BME280;31781;54.094;13.428;2023-04-03T10:18:54;103557.75;;;12.42;36.89
46045;BME280;31781;54.094;13.428;2023-04-03T10:21:03;103550.97;;;12.46;37.82
46045;BME280;31781;54.094;13.428;2023-04-03T10:23:16;103549.66;;;12.50;36.96
46045;BME280;31781;54.094;13.428;2023-04-03T10:25:25;103552.63;;;12.56;37.43
46045;BME280;31781;54.094;13.428;2023-04-03T10:27:38;103546.25;;;12.65;38.30
46045;BME280;31781;54.094;13.428;2023-04-03T10:29:48;103544.16;;;12.77;37.90
46045;BME280;31781;54.094;13.428;2023-04-03T10:32:00;103536.91;;;12.86;37.46
46045;BME280;31781;54.094;13.428;2023-04-03T10:34:06;103542.38;;;12.86;35.94
46045;BME280;31781;54.094;13.428;2023-04-03T10:36:19;103538.44;;;12.88;37.26
46045;BME280;31781;54.094;13.428;2023-04-03T10:38:31;103541.97;;;12.98;37.49
46045;BME280;31781;54.094;13.428;2023-04-03T10:40:44;103544.63;;;13.08;38.43
46045;BME280;31781;54.094;13.428;2023-04-03T10:42:53;103541.88;;;13.08;36.08
46045;BME280;31781;54.094;13.428;2023-04-03T10:45:15;103546.63;;;13.06;37.76
46045;BME280;31781;54.094;13.428;2023-04-03T10:47:22;103542.13;;;12.97;35.32